createdAt,value
2018-08-03T00:00:10.964Z,25.73
2018-08-03T00:00:51.533Z,25.66
2018-08-03T00:01:32.098Z,25.7
2018-08-03T00:02:12.680Z,25.7
2018-08-03T00:02:53.257Z,25.68
2018-08-03T00:03:33.829Z,25.73
2018-08-03T00:04:14.394Z,25.66
2018-08-03T00:04:54.961Z,25.66
2018-08-03T00:05:35.552Z,25.72
2018-08-03T00:06:16.166Z,25.72
2018-08-03T00:06:56.732Z,25.69
2018-08-03T00:07:37.351Z,25.69
2018-08-03T00:08:17.894Z,25.69
2018-08-03T00:08:58.467Z,25.7
2018-08-03T00:09:39.070Z,25.68
2018-08-03T00:10:19.650Z,25.54
2018-08-03T00:11:00.224Z,25.58
2018-08-03T00:11:40.796Z,25.58
2018-08-03T00:12:21.368Z,25.68
2018-08-03T00:13:01.939Z,25.55
2018-08-03T00:13:42.511Z,25.51
2018-08-03T00:14:23.083Z,25.59
2018-08-03T00:15:03.654Z,25.51
2018-08-03T00:15:44.220Z,25.51
2018-08-03T00:16:24.794Z,25.5
2018-08-03T00:17:05.357Z,25.54
2018-08-03T00:17:45.932Z,25.46
2018-08-03T00:18:26.505Z,25.53
2018-08-03T00:19:07.074Z,25.54
2018-08-03T00:19:47.647Z,25.59
2018-08-03T00:20:28.205Z,25.51
2018-08-03T00:21:08.780Z,25.41
2018-08-03T00:21:49.348Z,25.51
2018-08-03T00:22:29.920Z,25.47
2018-08-03T00:23:10.499Z,25.48
2018-08-03T00:23:51.097Z,25.43
2018-08-03T00:24:31.668Z,25.43
2018-08-03T00:25:12.255Z,25.43
2018-08-03T00:25:52.852Z,25.36
2018-08-03T00:26:33.419Z,25.47
2018-08-03T00:27:13.983Z,25.41
2018-08-03T00:27:54.545Z,25.41
2018-08-03T00:28:35.108Z,25.4
2018-08-03T00:29:15.679Z,25.46
2018-08-03T00:29:56.265Z,25.41
2018-08-03T00:30:36.835Z,25.4
2018-08-03T00:31:17.394Z,25.43
2018-08-03T00:31:57.982Z,25.44
2018-08-03T00:32:38.567Z,25.35
2018-08-03T00:33:19.119Z,25.4
2018-08-03T00:33:59.680Z,25.38
2018-08-03T00:34:40.259Z,25.43
2018-08-03T00:35:20.826Z,25.43
2018-08-03T00:36:01.390Z,25.4
2018-08-03T00:36:41.950Z,25.36
2018-08-03T00:37:22.548Z,25.38
2018-08-03T00:38:03.129Z,25.43
2018-08-03T00:38:43.702Z,25.43
2018-08-03T00:39:24.378Z,25.35
2018-08-03T00:40:04.873Z,25.38
2018-08-03T00:40:45.486Z,25.32
2018-08-03T00:41:26.085Z,25.36
2018-08-03T00:42:06.679Z,25.4
2018-08-03T00:42:47.243Z,25.31
2018-08-03T00:43:27.829Z,25.35
2018-08-03T00:44:08.446Z,25.36
2018-08-03T00:44:49.001Z,25.32
2018-08-03T00:45:29.562Z,25.36
2018-08-03T00:46:10.139Z,25.32
2018-08-03T00:46:50.704Z,25.32
2018-08-03T00:47:31.289Z,25.33
2018-08-03T00:48:11.854Z,25.29
2018-08-03T00:48:52.426Z,25.29
2018-08-03T00:49:32.997Z,25.25
2018-08-03T00:50:13.567Z,25.25
2018-08-03T00:50:54.141Z,25.29
2018-08-03T00:51:34.761Z,25.28
2018-08-03T00:52:15.387Z,25.28
2018-08-03T00:52:55.953Z,25.26
2018-08-03T00:53:36.521Z,25.31
2018-08-03T00:54:17.215Z,25.21
2018-08-03T00:54:57.825Z,25.26
2018-08-03T00:55:38.505Z,25.26
2018-08-03T00:56:19.091Z,25.32
2018-08-03T00:56:59.671Z,25.25
2018-08-03T00:57:40.277Z,25.22
2018-08-03T00:58:20.848Z,25.23
2018-08-03T00:59:01.440Z,25.29
2018-08-03T00:59:42.047Z,25.33
2018-08-03T01:00:22.825Z,25.31
2018-08-03T01:01:03.394Z,25.28
2018-08-03T01:01:43.964Z,25.28
2018-08-03T01:02:24.545Z,25.36
2018-08-03T01:03:05.156Z,25.35
2018-08-03T01:03:45.968Z,25.32
2018-08-03T01:04:26.539Z,25.38
2018-08-03T01:05:07.102Z,25.35
2018-08-03T01:05:47.699Z,25.43
2018-08-03T01:06:28.280Z,25.38
2018-08-03T01:07:08.863Z,25.29
2018-08-03T01:07:49.457Z,25.33
2018-08-03T01:08:30.035Z,25.33
2018-08-03T01:09:10.667Z,25.33
2018-08-03T01:09:51.238Z,25.33
2018-08-03T01:10:31.819Z,25.35
2018-08-03T01:11:12.397Z,25.35
2018-08-03T01:11:52.958Z,25.29
2018-08-03T01:12:33.678Z,25.33
2018-08-03T01:13:14.251Z,25.33
2018-08-03T01:13:54.818Z,25.31
2018-08-03T01:14:35.437Z,25.25
2018-08-03T01:15:16.026Z,25.38
2018-08-03T01:15:56.590Z,25.36
2018-08-03T01:16:37.155Z,25.36
2018-08-03T01:17:17.709Z,25.23
2018-08-03T01:17:58.288Z,25.25
2018-08-03T01:18:38.867Z,25.38
2018-08-03T01:19:19.416Z,25.36
2018-08-03T01:19:59.986Z,25.26
2018-08-03T01:20:40.543Z,25.32
2018-08-03T01:21:21.106Z,25.35
2018-08-03T01:22:01.664Z,25.38
2018-08-03T01:22:42.234Z,25.36
2018-08-03T01:23:22.812Z,25.36
2018-08-03T01:24:03.381Z,25.32
2018-08-03T01:24:43.965Z,25.4
2018-08-03T01:25:24.530Z,25.36
2018-08-03T01:26:05.180Z,25.38
2018-08-03T01:26:45.737Z,25.35
2018-08-03T01:27:26.304Z,25.41
2018-08-03T01:28:06.904Z,25.4
2018-08-03T01:28:47.457Z,25.38
2018-08-03T01:29:28.080Z,25.41
2018-08-03T01:30:08.647Z,25.41
2018-08-03T01:30:49.223Z,25.44
2018-08-03T01:31:29.795Z,25.46
2018-08-03T01:32:10.363Z,25.38
2018-08-03T01:32:50.939Z,25.38
2018-08-03T01:33:31.505Z,25.41
2018-08-03T01:34:12.075Z,25.36
2018-08-03T01:34:52.643Z,25.33
2018-08-03T01:35:33.216Z,25.38
2018-08-03T01:36:13.762Z,25.38
2018-08-03T01:36:54.328Z,25.38
2018-08-03T01:37:34.897Z,25.35
2018-08-03T01:38:15.474Z,25.38
2018-08-03T01:38:56.039Z,25.31
2018-08-03T01:39:36.598Z,25.36
2018-08-03T01:40:17.166Z,25.33
2018-08-03T01:40:57.743Z,25.41
2018-08-03T01:41:38.314Z,25.36
2018-08-03T01:42:18.885Z,25.36
2018-08-03T01:42:59.443Z,25.41
2018-08-03T01:43:40.005Z,25.35
2018-08-03T01:44:20.576Z,25.35
2018-08-03T01:45:01.143Z,25.32
2018-08-03T01:45:41.734Z,25.41
2018-08-03T01:46:22.295Z,25.43
2018-08-03T01:47:02.849Z,25.38
2018-08-03T01:47:43.434Z,25.33
2018-08-03T01:48:24.003Z,25.36
2018-08-03T01:49:04.619Z,25.23
2018-08-03T01:49:45.222Z,25.21
2018-08-03T01:50:25.801Z,25.21
2018-08-03T01:51:06.365Z,25.22
2018-08-03T01:51:46.926Z,25.21
2018-08-03T01:52:27.479Z,25.29
2018-08-03T01:53:08.057Z,25.25
2018-08-03T01:53:48.637Z,25.18
2018-08-03T01:54:29.210Z,25.21
2018-08-03T01:55:09.780Z,25.21
2018-08-03T01:55:50.348Z,25.28
2018-08-03T01:56:30.930Z,25.21
2018-08-03T01:57:11.511Z,25.18
2018-08-03T01:57:52.167Z,25.23
2018-08-03T01:58:32.716Z,25.17
2018-08-03T01:59:13.363Z,25.23
2018-08-03T01:59:53.895Z,25.18
2018-08-03T02:00:34.500Z,25.18
2018-08-03T02:01:15.052Z,25.22
2018-08-03T02:01:55.646Z,25.18
2018-08-03T02:02:36.176Z,25.18
2018-08-03T02:03:16.789Z,25.25
2018-08-03T02:03:57.313Z,25.21
2018-08-03T02:04:37.883Z,25.21
2018-08-03T02:05:18.448Z,25.25
2018-08-03T02:05:59.018Z,25.28
2018-08-03T02:06:39.584Z,25.32
2018-08-03T02:07:20.155Z,25.28
2018-08-03T02:08:00.727Z,25.28
2018-08-03T02:08:41.304Z,25.22
2018-08-03T02:09:21.878Z,25.26
2018-08-03T02:10:02.476Z,25.21
2018-08-03T02:10:43.044Z,25.17
2018-08-03T02:11:23.635Z,25.1
2018-08-03T02:12:04.224Z,25.23
2018-08-03T02:12:44.795Z,25.22
2018-08-03T02:13:25.364Z,25.14
2018-08-03T02:14:05.933Z,25.21
2018-08-03T02:14:46.503Z,25.21
2018-08-03T02:15:27.080Z,25.16
2018-08-03T02:16:07.651Z,25.1
2018-08-03T02:16:48.217Z,25.16
2018-08-03T02:17:28.777Z,25.14
2018-08-03T02:18:09.346Z,25.13
2018-08-03T02:18:49.913Z,25.1
2018-08-03T02:19:30.485Z,25.14
2018-08-03T02:20:11.058Z,25.21
2018-08-03T02:20:51.625Z,25.13
2018-08-03T02:21:32.190Z,25.16
2018-08-03T02:22:12.754Z,25.14
2018-08-03T02:22:53.329Z,25.17
2018-08-03T02:23:33.899Z,25.11
2018-08-03T02:24:14.470Z,25.07
2018-08-03T02:24:55.042Z,25.03
2018-08-03T02:25:35.616Z,25.07
2018-08-03T02:26:16.196Z,25.11
2018-08-03T02:26:56.731Z,25.07
2018-08-03T02:27:37.299Z,25.06
2018-08-03T02:28:17.930Z,25.07
2018-08-03T02:28:58.537Z,25.08
2018-08-03T02:29:39.174Z,25.08
2018-08-03T02:30:19.743Z,25.07
2018-08-03T02:31:00.297Z,25.08
2018-08-03T02:31:40.865Z,25.14
2018-08-03T02:32:21.500Z,25.08
2018-08-03T02:33:02.055Z,25.06
2018-08-03T02:33:42.649Z,25.11
2018-08-03T02:34:23.215Z,25.11
2018-08-03T02:35:03.777Z,25.06
2018-08-03T02:35:44.345Z,25.04
2018-08-03T02:36:24.920Z,25.11
2018-08-03T02:37:05.497Z,25.1
2018-08-03T02:37:46.058Z,25.16
2018-08-03T02:38:26.653Z,25.16
2018-08-03T02:39:07.409Z,25.13
2018-08-03T02:39:47.984Z,25.1
2018-08-03T02:40:28.549Z,25.11
2018-08-03T02:41:09.112Z,25.11
2018-08-03T02:41:49.707Z,25.1
2018-08-03T02:42:30.242Z,25.07
2018-08-03T02:43:10.812Z,25.07
2018-08-03T02:43:51.380Z,25.04
2018-08-03T02:44:31.948Z,25.07
2018-08-03T02:45:12.519Z,25.01
2018-08-03T02:45:53.109Z,25.06
2018-08-03T02:46:33.700Z,24.99
2018-08-03T02:47:14.298Z,25.04
2018-08-03T02:47:54.849Z,24.99
2018-08-03T02:48:35.415Z,24.98
2018-08-03T02:49:15.997Z,24.96
2018-08-03T02:49:56.726Z,24.99
2018-08-03T02:50:37.191Z,24.92
2018-08-03T02:51:17.758Z,24.91
2018-08-03T02:51:58.326Z,25.06
2018-08-03T02:52:38.912Z,24.99
2018-08-03T02:53:19.497Z,24.98
2018-08-03T02:54:00.122Z,24.98
2018-08-03T02:54:40.757Z,24.95
2018-08-03T02:55:21.328Z,24.98
2018-08-03T02:56:01.908Z,24.99
2018-08-03T02:56:42.668Z,24.95
2018-08-03T02:57:23.200Z,24.88
2018-08-03T02:58:03.786Z,24.91
2018-08-03T02:58:44.355Z,25.01
2018-08-03T02:59:24.909Z,24.95
2018-08-03T03:00:05.501Z,24.98
2018-08-03T03:00:46.092Z,24.96
2018-08-03T03:01:26.652Z,24.96
2018-08-03T03:02:07.270Z,24.92
2018-08-03T03:02:47.838Z,24.99
2018-08-03T03:03:28.417Z,24.95
2018-08-03T03:04:08.978Z,24.98
2018-08-03T03:04:49.545Z,24.96
2018-08-03T03:05:30.125Z,24.99
2018-08-03T03:06:10.713Z,24.92
2018-08-03T03:06:51.276Z,24.98
2018-08-03T03:07:31.855Z,24.89
2018-08-03T03:08:12.446Z,24.93
2018-08-03T03:08:53.028Z,24.96
2018-08-03T03:09:33.581Z,24.93
2018-08-03T03:10:14.152Z,24.95
2018-08-03T03:10:54.732Z,24.91
2018-08-03T03:11:35.315Z,24.98
2018-08-03T03:12:15.885Z,24.93
2018-08-03T03:12:56.447Z,24.85
2018-08-03T03:13:37.003Z,24.99
2018-08-03T03:14:17.582Z,24.96
2018-08-03T03:14:58.164Z,24.95
2018-08-03T03:15:38.753Z,24.85
2018-08-03T03:16:19.335Z,24.91
2018-08-03T03:16:59.892Z,24.89
2018-08-03T03:17:40.486Z,24.89
2018-08-03T03:18:21.115Z,24.88
2018-08-03T03:19:01.796Z,24.81
2018-08-03T03:19:42.540Z,24.78
2018-08-03T03:20:23.067Z,24.81
2018-08-03T03:21:03.911Z,24.88
2018-08-03T03:21:44.489Z,24.81
2018-08-03T03:22:25.050Z,24.84
2018-08-03T03:23:05.658Z,24.81
2018-08-03T03:23:46.233Z,24.89
2018-08-03T03:24:26.842Z,24.85
2018-08-03T03:25:07.448Z,24.78
2018-08-03T03:25:48.107Z,24.8
2018-08-03T03:26:28.680Z,24.91
2018-08-03T03:27:09.275Z,24.88
2018-08-03T03:27:49.913Z,24.86
2018-08-03T03:28:30.524Z,24.85
2018-08-03T03:29:11.131Z,24.85
2018-08-03T03:29:51.717Z,24.76
2018-08-03T03:30:32.256Z,24.85
2018-08-03T03:31:12.831Z,24.78
2018-08-03T03:31:53.385Z,24.78
2018-08-03T03:32:33.954Z,24.81
2018-08-03T03:33:14.524Z,24.76
2018-08-03T03:33:55.099Z,24.85
2018-08-03T03:34:35.736Z,24.85
2018-08-03T03:35:16.446Z,24.88
2018-08-03T03:35:57.048Z,24.81
2018-08-03T03:36:37.704Z,24.86
2018-08-03T03:37:18.324Z,24.81
2018-08-03T03:37:58.959Z,24.78
2018-08-03T03:38:39.582Z,24.78
2018-08-03T03:39:20.193Z,24.85
2018-08-03T03:40:00.767Z,24.84
2018-08-03T03:40:41.438Z,24.86
2018-08-03T03:41:22.086Z,24.88
2018-08-03T03:42:02.715Z,24.95
2018-08-03T03:42:43.285Z,24.95
2018-08-03T03:43:23.849Z,24.86
2018-08-03T03:44:04.546Z,24.91
2018-08-03T03:44:45.130Z,24.88
2018-08-03T03:45:25.635Z,24.86
2018-08-03T03:46:06.195Z,24.93
2018-08-03T03:46:46.759Z,24.85
2018-08-03T03:47:27.332Z,24.88
2018-08-03T03:48:07.890Z,24.84
2018-08-03T03:48:48.452Z,24.89
2018-08-03T03:49:29.021Z,24.74
2018-08-03T03:50:09.607Z,24.74
2018-08-03T03:50:50.187Z,24.76
2018-08-03T03:51:30.768Z,24.61
2018-08-03T03:52:11.343Z,24.69
2018-08-03T03:52:51.903Z,24.68
2018-08-03T03:53:32.459Z,24.61
2018-08-03T03:54:13.030Z,24.58
2018-08-03T03:54:53.604Z,24.57
2018-08-03T03:55:34.176Z,24.55
2018-08-03T03:56:14.751Z,24.53
2018-08-03T03:56:55.338Z,24.5
2018-08-03T03:57:35.896Z,24.47
2018-08-03T03:58:16.470Z,24.39
2018-08-03T03:58:57.049Z,24.4
2018-08-03T03:59:37.622Z,24.35
2018-08-03T04:00:18.214Z,24.35
2018-08-03T04:00:58.773Z,24.39
2018-08-03T04:01:39.357Z,24.3
2018-08-03T04:02:19.916Z,24.28
2018-08-03T04:03:00.476Z,24.28
2018-08-03T04:03:41.094Z,24.29
2018-08-03T04:04:21.683Z,24.32
2018-08-03T04:05:02.275Z,24.28
2018-08-03T04:05:42.839Z,24.28
2018-08-03T04:06:23.397Z,24.29
2018-08-03T04:07:03.966Z,24.26
2018-08-03T04:07:44.538Z,24.3
2018-08-03T04:08:25.112Z,24.29
2018-08-03T04:09:05.670Z,24.24
2018-08-03T04:09:46.230Z,24.29
2018-08-03T04:10:26.800Z,24.29
2018-08-03T04:11:07.377Z,24.28
2018-08-03T04:11:47.947Z,24.28
2018-08-03T04:12:28.565Z,24.28
2018-08-03T04:13:09.166Z,24.28
2018-08-03T04:13:49.765Z,24.17
2018-08-03T04:14:30.330Z,24.28
2018-08-03T04:15:10.886Z,24.32
2018-08-03T04:15:51.433Z,24.24
2018-08-03T04:16:31.998Z,24.28
2018-08-03T04:17:12.570Z,24.28
2018-08-03T04:17:53.121Z,24.2
2018-08-03T04:18:33.690Z,24.21
2018-08-03T04:19:14.242Z,24.21
2018-08-03T04:19:54.804Z,24.21
2018-08-03T04:20:35.374Z,24.2
2018-08-03T04:21:15.939Z,24.23
2018-08-03T04:21:56.504Z,24.16
2018-08-03T04:22:37.088Z,24.23
2018-08-03T04:23:17.657Z,24.18
2018-08-03T04:23:58.231Z,24.23
2018-08-03T04:24:38.796Z,24.2
2018-08-03T04:25:19.354Z,24.18
2018-08-03T04:25:59.922Z,24.18
2018-08-03T04:26:40.486Z,24.26
2018-08-03T04:27:21.051Z,24.18
2018-08-03T04:28:01.610Z,24.18
2018-08-03T04:28:42.170Z,24.24
2018-08-03T04:29:22.752Z,24.26
2018-08-03T04:30:03.310Z,24.26
2018-08-03T04:30:43.867Z,24.29
2018-08-03T04:31:24.426Z,24.26
2018-08-03T04:32:05.039Z,24.29
2018-08-03T04:32:45.653Z,24.26
2018-08-03T04:33:26.278Z,24.29
2018-08-03T04:34:06.866Z,24.21
2018-08-03T04:34:47.438Z,24.29
2018-08-03T04:35:28.016Z,24.26
2018-08-03T04:36:08.580Z,24.32
2018-08-03T04:36:49.196Z,24.3
2018-08-03T04:37:29.828Z,24.35
2018-08-03T04:38:10.458Z,24.3
2018-08-03T04:38:51.184Z,24.33
2018-08-03T04:39:31.738Z,24.4
2018-08-03T04:40:12.356Z,24.35
2018-08-03T04:40:53.057Z,24.39
2018-08-03T04:41:33.687Z,24.43
2018-08-03T04:42:14.434Z,24.39
2018-08-03T04:42:54.942Z,24.45
2018-08-03T04:43:35.539Z,24.48
2018-08-03T04:44:16.217Z,24.39
2018-08-03T04:44:56.849Z,24.5
2018-08-03T04:45:37.430Z,24.47
2018-08-03T04:46:18.099Z,24.54
2018-08-03T04:46:58.809Z,24.58
2018-08-03T04:47:39.398Z,24.6
2018-08-03T04:48:19.968Z,24.61
2018-08-03T04:49:00.524Z,24.66
2018-08-03T04:49:41.091Z,24.69
2018-08-03T04:50:21.664Z,24.6
2018-08-03T04:51:02.236Z,24.65
2018-08-03T04:51:42.808Z,24.7
2018-08-03T04:52:23.408Z,24.69
2018-08-03T04:53:03.953Z,24.7
2018-08-03T04:53:44.508Z,24.73
2018-08-03T04:54:25.066Z,24.7
2018-08-03T04:55:05.639Z,24.73
2018-08-03T04:55:46.190Z,24.68
2018-08-03T04:56:26.774Z,24.77
2018-08-03T04:57:07.337Z,24.7
2018-08-03T04:57:47.894Z,24.7
2018-08-03T04:58:28.465Z,24.77
2018-08-03T04:59:09.033Z,24.73
2018-08-03T04:59:49.617Z,24.7
2018-08-03T05:00:30.185Z,24.78
2018-08-03T05:01:10.797Z,24.69
2018-08-03T05:01:51.374Z,24.61
2018-08-03T05:02:31.951Z,24.76
2018-08-03T05:03:12.512Z,24.66
2018-08-03T05:03:53.084Z,24.65
2018-08-03T05:04:33.639Z,24.61
2018-08-03T05:05:14.217Z,24.65
2018-08-03T05:05:54.809Z,24.69
2018-08-03T05:06:35.385Z,24.69
2018-08-03T05:07:16.007Z,24.77
2018-08-03T05:07:56.566Z,24.74
2018-08-03T05:08:37.162Z,24.73
2018-08-03T05:09:17.984Z,24.76
2018-08-03T05:09:58.569Z,24.84
2018-08-03T05:10:39.236Z,24.81
2018-08-03T05:11:19.836Z,24.91
2018-08-03T05:12:00.387Z,24.78
2018-08-03T05:12:40.996Z,24.96
2018-08-03T05:13:21.590Z,25.01
2018-08-03T05:14:02.186Z,24.93
2018-08-03T05:14:42.753Z,24.93
2018-08-03T05:15:23.426Z,24.99
2018-08-03T05:16:03.892Z,24.98
2018-08-03T05:16:44.496Z,24.98
2018-08-03T05:17:25.066Z,24.98
2018-08-03T05:18:05.627Z,24.96
2018-08-03T05:18:46.215Z,24.95
2018-08-03T05:19:26.826Z,24.98
2018-08-03T05:20:07.504Z,25.04
2018-08-03T05:20:48.148Z,24.99
2018-08-03T05:21:28.943Z,25.04
2018-08-03T05:22:09.595Z,24.95
2018-08-03T05:22:50.184Z,24.92
2018-08-03T05:23:30.816Z,24.95
2018-08-03T05:24:11.428Z,24.93
2018-08-03T05:24:51.976Z,24.98
2018-08-03T05:25:32.544Z,24.99
2018-08-03T05:26:13.111Z,24.96
2018-08-03T05:26:53.670Z,24.96
2018-08-03T05:27:34.231Z,24.93
2018-08-03T05:28:14.814Z,24.98
2018-08-03T05:28:55.368Z,24.98
2018-08-03T05:29:35.935Z,24.95
2018-08-03T05:30:16.527Z,24.92
2018-08-03T05:30:57.091Z,24.99
2018-08-03T05:31:37.652Z,25.01
2018-08-03T05:32:18.219Z,24.93
2018-08-03T05:32:58.789Z,24.96
2018-08-03T05:33:39.361Z,24.95
2018-08-03T05:34:19.928Z,24.96
2018-08-03T05:35:00.494Z,24.99
2018-08-03T05:35:41.085Z,25.06
2018-08-03T05:36:21.688Z,24.99
2018-08-03T05:37:02.225Z,25.06
2018-08-03T05:37:42.787Z,25.06
2018-08-03T05:38:23.339Z,25.06
2018-08-03T05:39:03.913Z,25.08
2018-08-03T05:39:44.482Z,25.07
2018-08-03T05:40:25.049Z,25.13
2018-08-03T05:41:05.667Z,25.07
2018-08-03T05:41:46.258Z,25.13
2018-08-03T05:42:26.931Z,25.08
2018-08-03T05:43:07.554Z,25.14
2018-08-03T05:43:48.129Z,25.18
2018-08-03T05:44:28.703Z,25.16
2018-08-03T05:45:09.281Z,25.31
2018-08-03T05:45:49.838Z,25.21
2018-08-03T05:46:30.445Z,25.29
2018-08-03T05:47:10.970Z,25.36
2018-08-03T05:47:51.540Z,25.4
2018-08-03T05:48:32.148Z,25.47
2018-08-03T05:49:12.751Z,25.65
2018-08-03T05:49:53.346Z,25.55
2018-08-03T05:50:33.905Z,25.77
2018-08-03T05:51:14.419Z,25.81
2018-08-03T05:51:55.034Z,25.84
2018-08-03T05:52:35.607Z,25.96
2018-08-03T05:53:16.181Z,26.06
2018-08-03T05:53:56.750Z,26.07
2018-08-03T05:54:37.324Z,26.18
2018-08-03T05:55:17.906Z,26.15
2018-08-03T05:55:58.488Z,26.25
2018-08-03T05:56:39.062Z,26.26
2018-08-03T05:57:19.624Z,26.37
2018-08-03T05:58:00.226Z,26.43
2018-08-03T05:58:40.740Z,26.47
2018-08-03T05:59:21.303Z,26.44
2018-08-03T06:00:01.875Z,26.52
2018-08-03T06:00:42.439Z,26.58
2018-08-03T06:01:23.020Z,26.51
2018-08-03T06:02:03.654Z,26.51
2018-08-03T06:02:44.204Z,26.38
2018-08-03T06:03:24.771Z,26.37
2018-08-03T06:04:05.415Z,26.26
2018-08-03T06:04:45.913Z,26.26
2018-08-03T06:05:26.485Z,26.18
2018-08-03T06:06:07.042Z,26.18
2018-08-03T06:06:47.598Z,26.22
2018-08-03T06:07:28.201Z,26.13
2018-08-03T06:08:08.825Z,26.03
2018-08-03T06:08:49.356Z,26
2018-08-03T06:09:30.087Z,25.96
2018-08-03T06:10:10.670Z,25.96
2018-08-03T06:10:51.224Z,25.9
2018-08-03T06:11:31.795Z,25.87
2018-08-03T06:12:12.363Z,25.95
2018-08-03T06:12:52.926Z,25.91
2018-08-03T06:13:33.486Z,25.91
2018-08-03T06:14:14.066Z,25.87
2018-08-03T06:14:54.721Z,25.87
2018-08-03T06:15:35.380Z,25.95
2018-08-03T06:16:15.932Z,25.96
2018-08-03T06:16:56.535Z,25.98
2018-08-03T06:17:37.111Z,25.91
2018-08-03T06:18:17.733Z,25.96
2018-08-03T06:18:58.826Z,25.98
2018-08-03T06:19:39.600Z,26.05
2018-08-03T06:20:20.178Z,26.15
2018-08-03T06:21:00.829Z,26.13
2018-08-03T06:21:41.412Z,26.29
2018-08-03T06:22:21.992Z,26.51
2018-08-03T06:23:02.563Z,26.58
2018-08-03T06:23:43.212Z,26.73
2018-08-03T06:24:23.976Z,26.75
2018-08-03T06:25:04.755Z,26.92
2018-08-03T06:25:45.317Z,27
2018-08-03T06:26:25.878Z,27.12
2018-08-03T06:27:06.521Z,27.32
2018-08-03T06:27:47.195Z,27.44
2018-08-03T06:28:27.955Z,27.51
2018-08-03T06:29:08.579Z,27.52
2018-08-03T06:29:49.280Z,27.55
2018-08-03T06:30:29.727Z,27.65
2018-08-03T06:31:10.345Z,27.7
2018-08-03T06:31:50.988Z,27.7
2018-08-03T06:32:32.842Z,27.85
2018-08-03T06:33:14.961Z,27.92
2018-08-03T06:33:56.114Z,27.96
2018-08-03T06:34:36.882Z,27.95
2018-08-03T06:35:19.229Z,27.98
2018-08-03T06:36:01.035Z,28.07
2018-08-03T06:36:42.400Z,28.01
2018-08-03T06:37:24.334Z,28.01
2018-08-03T06:38:06.462Z,28.01
2018-08-03T06:38:48.297Z,28.12
2018-08-03T06:39:30.706Z,28.17
2018-08-03T06:40:12.780Z,28.26
2018-08-03T06:40:55.427Z,28.22
2018-08-03T06:41:36.556Z,28.25
2018-08-03T06:42:18.491Z,28.29
2018-08-03T06:42:59.416Z,28.27
2018-08-03T06:43:41.308Z,28.3
2018-08-03T06:44:23.994Z,28.27
2018-08-03T06:45:05.590Z,28.3
2018-08-03T06:45:47.835Z,28.23
2018-08-03T06:46:29.747Z,28.26
2018-08-03T06:47:11.670Z,28.3
2018-08-03T06:47:53.553Z,28.27
2018-08-03T06:48:34.910Z,28.27
2018-08-03T06:49:16.060Z,28.27
2018-08-03T06:49:57.342Z,28.26
2018-08-03T06:50:41.060Z,28.35
2018-08-03T06:51:22.202Z,28.42
2018-08-03T06:52:04.520Z,28.45
2018-08-03T06:52:45.924Z,28.54
2018-08-03T06:53:27.336Z,28.57
2018-08-03T06:54:08.844Z,28.66
2018-08-03T06:54:50.872Z,28.66
2018-08-03T06:55:35.018Z,28.72
2018-08-03T06:56:16.331Z,28.69
2018-08-03T06:56:59.258Z,28.7
2018-08-03T06:57:40.532Z,28.78
2018-08-03T06:58:22.490Z,28.93
2018-08-03T06:59:03.888Z,29.05
2018-08-03T06:59:45.475Z,29.14
2018-08-03T07:00:27.050Z,29.12
2018-08-03T07:01:09.979Z,29.14
2018-08-03T07:01:52.049Z,29.17
2018-08-03T07:02:35.012Z,29.2
2018-08-03T07:03:18.252Z,29.26
2018-08-03T07:03:59.430Z,29.31
2018-08-03T07:04:40.640Z,29.22
2018-08-03T07:05:22.513Z,29.41
2018-08-03T07:06:04.585Z,29.39
2018-08-03T07:06:45.771Z,29.47
2018-08-03T07:07:27.095Z,29.45
2018-08-03T07:08:08.489Z,29.56
2018-08-03T07:08:49.855Z,29.53
2018-08-03T07:09:31.861Z,29.61
2018-08-03T07:10:14.710Z,29.53
2018-08-03T07:10:58.805Z,29.79
2018-08-03T07:11:41.784Z,29.82
2018-08-03T07:12:23.103Z,29.78
2018-08-03T07:13:04.332Z,29.82
2018-08-03T07:13:46.522Z,29.91
2018-08-03T07:14:28.666Z,29.88
2018-08-03T07:15:10.743Z,29.87
2018-08-03T07:15:52.114Z,29.86
2018-08-03T07:16:33.753Z,29.88
2018-08-03T07:17:14.941Z,29.93
2018-08-03T07:17:56.749Z,29.91
2018-08-03T07:18:38.326Z,29.91
2018-08-03T07:19:20.261Z,30.05
2018-08-03T07:20:01.507Z,29.97
2018-08-03T07:20:42.605Z,30.06
2018-08-03T07:21:23.907Z,30
2018-08-03T07:22:05.082Z,30.1
2018-08-03T07:22:47.409Z,30.03
2018-08-03T07:23:30.147Z,30.06
2018-08-03T07:24:11.356Z,30.03
2018-08-03T07:24:52.454Z,29.94
2018-08-03T07:25:33.765Z,30
2018-08-03T07:26:15.023Z,30.06
2018-08-03T07:26:56.762Z,30.02
2018-08-03T07:27:38.605Z,30.1
2018-08-03T07:28:22.234Z,30.1
2018-08-03T07:29:04.429Z,30.23
2018-08-03T07:29:45.576Z,30.27
2018-08-03T07:30:28.346Z,30.28
2018-08-03T07:31:09.705Z,30.31
2018-08-03T07:31:50.885Z,30.34
2018-08-03T07:32:32.189Z,30.37
2018-08-03T07:33:14.174Z,30.35
2018-08-03T07:33:56.476Z,30.44
2018-08-03T07:34:38.422Z,30.23
2018-08-03T07:35:19.787Z,30.31
2018-08-03T07:36:00.839Z,30.23
2018-08-03T07:36:42.087Z,30.43
2018-08-03T07:37:24.009Z,30.4
2018-08-03T07:38:05.429Z,30.46
2018-08-03T07:38:46.024Z,30.53
2018-08-03T07:39:26.592Z,30.5
2018-08-03T07:40:07.236Z,30.55
2018-08-03T07:40:47.819Z,30.57
2018-08-03T07:41:28.406Z,30.51
2018-08-03T07:42:08.977Z,30.51
2018-08-03T07:42:49.676Z,30.57
2018-08-03T07:43:30.230Z,30.63
2018-08-03T07:44:10.821Z,30.63
2018-08-03T07:44:51.441Z,30.62
2018-08-03T07:45:31.980Z,30.69
2018-08-03T07:46:12.587Z,30.72
2018-08-03T07:46:53.195Z,30.73
2018-08-03T07:47:33.776Z,30.8
2018-08-03T07:48:14.351Z,30.84
2018-08-03T07:48:54.928Z,30.9
2018-08-03T07:49:35.496Z,30.99
2018-08-03T07:50:16.077Z,30.94
2018-08-03T07:50:56.653Z,30.92
2018-08-03T07:51:37.272Z,30.91
2018-08-03T07:52:17.857Z,30.92
2018-08-03T07:52:58.436Z,30.94
2018-08-03T07:53:39.061Z,31.02
2018-08-03T07:54:19.661Z,31.03
2018-08-03T07:55:00.287Z,31.05
2018-08-03T07:56:47.951Z,31.03
2018-08-03T07:57:28.522Z,31.07
2018-08-03T07:58:09.165Z,30.94
2018-08-03T07:58:49.764Z,30.92
2018-08-03T07:59:30.392Z,30.91
2018-08-03T08:00:10.948Z,30.88
2018-08-03T08:00:51.524Z,30.9
2018-08-03T08:01:32.085Z,30.9
2018-08-03T08:02:12.802Z,30.92
2018-08-03T08:02:53.388Z,30.87
2018-08-03T08:03:33.982Z,30.99
2018-08-03T08:04:14.584Z,31.09
2018-08-03T08:04:55.125Z,31.03
2018-08-03T08:05:35.846Z,31.1
2018-08-03T08:06:16.475Z,31.05
2018-08-03T08:06:57.044Z,31.03
2018-08-03T08:07:37.620Z,31.05
2018-08-03T08:08:18.218Z,31.1
2018-08-03T08:08:58.824Z,31.12
2018-08-03T08:09:39.455Z,31.17
2018-08-03T08:10:19.990Z,31.17
2018-08-03T08:11:00.577Z,31.2
2018-08-03T08:11:41.172Z,31.15
2018-08-03T08:12:21.747Z,31.06
2018-08-03T08:13:02.331Z,31.05
2018-08-03T08:13:42.908Z,31.03
2018-08-03T08:14:23.483Z,31.06
2018-08-03T08:15:04.073Z,31.02
2018-08-03T08:15:44.646Z,31.1
2018-08-03T08:16:25.364Z,31.17
2018-08-03T08:17:06.782Z,31.03
2018-08-03T08:17:49.933Z,31.15
2018-08-03T08:18:32.218Z,31.07
2018-08-03T08:19:15.085Z,31.05
2018-08-03T08:19:56.823Z,31.03
2018-08-03T08:20:40.426Z,31.1
2018-08-03T08:21:22.336Z,31.06
2018-08-03T08:22:03.579Z,31.07
2018-08-03T08:22:46.507Z,31.03
2018-08-03T08:23:27.540Z,31.06
2018-08-03T08:24:08.771Z,31.05
2018-08-03T08:24:50.776Z,31.06
2018-08-03T08:25:31.777Z,31.07
2018-08-03T08:26:15.444Z,31.07
2018-08-03T08:26:57.334Z,31.05
2018-08-03T08:27:39.674Z,31.02
2018-08-03T08:28:21.102Z,30.97
2018-08-03T08:29:02.976Z,31.06
2018-08-03T08:29:44.742Z,31.05
2018-08-03T08:30:28.492Z,31.09
2018-08-03T08:31:09.528Z,31.12
2018-08-03T08:31:51.375Z,31.07
2018-08-03T08:32:32.843Z,31.07
2018-08-03T08:33:16.100Z,31.22
2018-08-03T08:33:57.295Z,31.09
2018-08-03T08:34:41.459Z,31.14
2018-08-03T08:35:23.496Z,31.18
2018-08-03T08:36:04.741Z,31.18
2018-08-03T08:36:46.766Z,31.1
2018-08-03T08:37:28.036Z,31.18
2018-08-03T08:38:09.989Z,31.21
2018-08-03T08:38:51.826Z,31.27
2018-08-03T08:39:35.407Z,31.27
2018-08-03T08:40:17.362Z,31.28
2018-08-03T08:40:58.738Z,31.31
2018-08-03T08:41:40.029Z,31.36
2018-08-03T08:42:22.395Z,31.31
2018-08-03T08:43:03.899Z,31.37
2018-08-03T08:43:45.148Z,31.36
2018-08-03T08:44:26.200Z,31.37
2018-08-03T08:45:08.044Z,31.33
2018-08-03T08:45:49.380Z,31.33
2018-08-03T08:46:33.950Z,31.28
2018-08-03T08:47:16.168Z,31.29
2018-08-03T08:47:59.053Z,31.2
2018-08-03T08:48:40.897Z,31.28